MMAS/AGU METAR and TAF weather

Enter ICAO airport designator
Station Type Date Time Source
MMAS METAR 2021/09/24 04:40 UTC NOAA

MMAS 240440Z 00000KT 8SM SCT100 SCT200 17/12 A3027 RMK 8/038


Station Type Date Time Source
MMAS Decoded METAR 2021/09/24 04:40 UTC NOAA

Aguascalientes, Ags., Mexico (MMAS) 21-53N 102-18W
Sep 24, 2021 - 12:40 AM EDT / 2021.09.24 0440 UTC
Wind: Calm:0
Visibility: 8 mile(s):0
Sky conditions: partly cloudy
Temperature: 62 F (17 C)
Dew Point: 53 F (12 C)
Relative Humidity: 72%
Pressure (altimeter): 30.27 in. Hg (1025 hPa)
ob: MMAS 240440Z 00000KT 8SM SCT100 SCT200 17/12 A3027 RMK 8/038
cycle: 4

Station Type Date Time Source
MMAS TAF 2021/09/24 06:49 UTC NOAA

TAF MMAS 240442Z 2406/2506 00000KT 6SM HZ SCT100 SCT200
FM241800 03010KT P6SM BKN030
FM250300 03005KT P6SM SCT020 BKN080

Example: see airport list